UMMS/MSQ METAR and TAF weather

Enter ICAO airport designator
Station Type Date Time Source
UMMS METAR 2020/01/18 13:05 UTC NOAA

UMMS 181305Z 21006G09MPS 7000 OVC004 M02/M03 Q1024 R88/CLRD// NOSIG RMK QBB140


Station Type Date Time Source
UMMS Decoded METAR 2020/01/18 13:05 UTC NOAA

Minsk, Belarus (UMMS) 53-56N 027-38E 231M
Jan 18, 2020 - 08:05 AM EST / 2020.01.18 1305 UTC
Wind: from the SSW (210 degrees) at 13 MPH (12 KT) gusting to 20 MPH (17 KT):0
Visibility: 4 mile(s):0
Sky conditions: overcast
Temperature: 28 F (-2 C)
Windchill: 17 F (-8 C):1
Dew Point: 26 F (-3 C)
Relative Humidity: 92%
Pressure (altimeter): 30.24 in. Hg (1024 hPa)
ob: UMMS 181305Z 21006G09MPS 7000 OVC004 M02/M03 Q1024 R88/CLRD// NOSIG RMK QBB140
cycle: 13

Station Type Date Time Source
UMMS TAF 2020/01/18 12:21 UTC NOAA

TAF TAF UMMS 181107Z 1812/1912 20006MPS 9999 BKN004 BKN010
TEMPO 1812/1816 23007G12MPS BKN003
TEMPO 1816/1906 0300 FZFG VV002
BECMG 1906/1907 24006MPS 3000 BR BKN003
TEMPO 1907/1912 27006G11MPS 1200 SHRASN BKN015CB

Example: see airport list